createdAt,value
2022-09-06T00:00:41.660Z,97.10
2022-09-06T00:01:43.928Z,96.87
2022-09-06T00:02:46.372Z,97.51
2022-09-06T00:03:50.979Z,97.03
2022-09-06T00:04:56.543Z,96.53
2022-09-06T00:05:58.701Z,96.82
2022-09-06T00:07:00.856Z,96.94
2022-09-06T00:08:05.715Z,96.82
2022-09-06T00:09:07.700Z,97.21
2022-09-06T00:10:11.196Z,96.74
2022-09-06T00:11:15.933Z,96.94
2022-09-06T00:12:19.454Z,97.77
2022-09-06T00:13:21.674Z,98.05
2022-09-06T00:14:24.106Z,98.59
2022-09-06T00:15:26.158Z,99.12
2022-09-06T00:16:30.504Z,99.11
2022-09-06T00:17:35.440Z,99.30
2022-09-06T00:18:37.910Z,100.00
2022-09-06T00:19:40.341Z,100.00
2022-09-06T00:20:42.519Z,100.00
2022-09-06T00:21:45.093Z,100.00
2022-09-06T00:22:47.163Z,100.00
2022-09-06T00:23:53.261Z,100.00
2022-09-06T00:24:55.690Z,100.00
2022-09-06T00:26:05.277Z,100.00
2022-09-06T00:27:09.468Z,100.00
2022-09-06T00:28:19.836Z,100.00
2022-09-06T00:29:21.914Z,100.00
2022-09-06T00:30:26.545Z,100.00
2022-09-06T00:31:29.803Z,100.00
2022-09-06T00:32:33.056Z,100.00
2022-09-06T00:33:37.653Z,100.00
2022-09-06T00:34:40.167Z,100.00
2022-09-06T00:35:42.280Z,100.00
2022-09-06T00:36:44.455Z,100.00
2022-09-06T00:37:46.957Z,100.00
2022-09-06T00:38:50.213Z,100.00
2022-09-06T00:39:52.331Z,100.00
2022-09-06T00:40:54.480Z,100.00
2022-09-06T00:41:57.898Z,100.00
2022-09-06T00:43:01.716Z,100.00
2022-09-06T00:44:04.298Z,100.00
2022-09-06T00:45:07.934Z,100.00
2022-09-06T00:46:14.557Z,100.00
2022-09-06T00:47:16.706Z,100.00
2022-09-06T00:48:21.374Z,100.00
2022-09-06T00:49:29.241Z,100.00
2022-09-06T00:50:32.871Z,100.00
2022-09-06T00:51:36.699Z,100.00
2022-09-06T00:52:40.262Z,100.00
2022-09-06T00:53:42.970Z,100.00
2022-09-06T00:54:45.817Z,100.00
2022-09-06T00:55:49.927Z,100.00
2022-09-06T00:56:55.565Z,100.00
2022-09-06T00:57:58.024Z,100.00
2022-09-06T00:59:03.532Z,100.00
2022-09-06T01:00:08.858Z,100.00
2022-09-06T01:01:11.027Z,100.00
2022-09-06T01:02:16.099Z,100.00
2022-09-06T01:03:22.974Z,100.00
2022-09-06T01:04:28.978Z,100.00
2022-09-06T01:05:45.400Z,100.00
2022-09-06T01:06:47.565Z,100.00
2022-09-06T01:08:16.109Z,100.00
2022-09-06T01:09:53.493Z,100.00
2022-09-06T01:10:58.525Z,100.00
2022-09-06T01:12:08.866Z,100.00
2022-09-06T01:13:48.241Z,100.00
2022-09-06T01:15:08.984Z,100.00
2022-09-06T01:16:37.767Z,100.00
2022-09-06T01:17:59.929Z,99.79
2022-09-06T01:19:23.482Z,100.00
2022-09-06T01:20:43.599Z,99.84
2022-09-06T01:22:23.902Z,100.00
2022-09-06T01:23:53.663Z,100.00
2022-09-06T01:25:10.987Z,100.00
2022-09-06T01:26:23.603Z,99.81
2022-09-06T01:27:46.361Z,100.00
2022-09-06T01:28:53.169Z,99.75
2022-09-06T01:30:13.081Z,99.06
2022-09-06T01:31:18.906Z,99.04
2022-09-06T01:32:29.111Z,98.89
2022-09-06T01:33:54.581Z,98.84
2022-09-06T01:35:12.810Z,98.78
2022-09-06T01:36:29.959Z,98.82
2022-09-06T01:37:32.789Z,98.42
2022-09-06T01:38:35.832Z,98.07
2022-09-06T01:39:40.612Z,98.16
2022-09-06T01:40:42.952Z,97.42
2022-09-06T01:41:45.107Z,97.15
2022-09-06T01:42:50.317Z,97.39
2022-09-06T01:43:54.587Z,96.99
2022-09-06T01:45:08.574Z,96.91
2022-09-06T01:46:27.621Z,97.42
2022-09-06T01:47:29.665Z,97.23
2022-09-06T01:48:39.426Z,98.20
2022-09-06T01:49:54.176Z,97.78
2022-09-06T01:51:35.712Z,98.82
2022-09-06T01:53:02.585Z,98.34
2022-09-06T01:54:34.703Z,98.46
2022-09-06T01:56:17.501Z,98.92
2022-09-06T01:57:42.021Z,98.30
2022-09-06T01:59:34.532Z,98.52
2022-09-06T02:01:09.572Z,98.29
2022-09-06T02:02:14.923Z,99.38
2022-09-06T02:03:32.870Z,99.21
2022-09-06T02:05:05.475Z,99.02
2022-09-06T02:06:13.301Z,99.01
2022-09-06T02:07:25.560Z,98.61
2022-09-06T02:08:44.788Z,97.72
2022-09-06T02:09:53.113Z,98.53
2022-09-06T02:11:04.466Z,98.79
2022-09-06T02:12:13.543Z,99.01
2022-09-06T02:13:19.481Z,98.90
2022-09-06T02:14:30.028Z,99.05
2022-09-06T02:15:39.771Z,98.66
2022-09-06T02:16:45.997Z,98.88
2022-09-06T02:17:56.039Z,98.44
2022-09-06T02:19:05.676Z,97.73
2022-09-06T02:20:16.344Z,97.87
2022-09-06T02:21:27.568Z,97.97
2022-09-06T02:22:33.671Z,97.59
2022-09-06T02:23:40.276Z,97.75
2022-09-06T02:24:44.919Z,97.89
2022-09-06T02:26:00.106Z,97.71
2022-09-06T02:27:02.233Z,97.22
2022-09-06T02:28:05.853Z,97.56
2022-09-06T02:29:08.139Z,97.74
2022-09-06T02:30:11.168Z,97.36
2022-09-06T02:31:29.309Z,97.58
2022-09-06T02:32:38.342Z,97.49
2022-09-06T02:33:41.528Z,97.99
2022-09-06T02:34:46.246Z,98.25
2022-09-06T02:35:51.721Z,97.92
2022-09-06T02:36:55.082Z,98.96
2022-09-06T02:37:57.338Z,98.91
2022-09-06T02:39:00.967Z,98.54
2022-09-06T02:40:03.655Z,98.59
2022-09-06T02:41:07.623Z,98.91
2022-09-06T02:42:11.747Z,99.16
2022-09-06T02:43:13.798Z,98.87
2022-09-06T02:44:17.143Z,98.61
2022-09-06T02:45:19.177Z,98.58
2022-09-06T02:46:21.414Z,98.75
2022-09-06T02:47:31.800Z,98.14
2022-09-06T02:48:33.932Z,98.48
2022-09-06T02:49:36.866Z,98.65
2022-09-06T02:50:38.984Z,98.24
2022-09-06T02:51:41.078Z,99.27
2022-09-06T02:52:43.379Z,98.93
2022-09-06T02:53:45.805Z,99.27
2022-09-06T02:54:47.904Z,99.88
2022-09-06T02:55:50.042Z,100.00
2022-09-06T02:56:52.564Z,100.00
2022-09-06T02:57:54.750Z,100.00
2022-09-06T02:58:57.049Z,100.00
2022-09-06T02:59:59.055Z,100.00
2022-09-06T03:01:01.612Z,100.00
2022-09-06T03:02:05.411Z,100.00
2022-09-06T03:03:07.957Z,100.00
2022-09-06T03:04:10.006Z,100.00
2022-09-06T03:05:12.211Z,100.00
2022-09-06T03:06:14.362Z,99.98
2022-09-06T03:07:16.630Z,100.00
2022-09-06T03:08:21.887Z,99.40
2022-09-06T03:09:25.236Z,99.32
2022-09-06T03:10:28.372Z,99.35
2022-09-06T03:11:30.542Z,99.13
2022-09-06T03:12:34.374Z,98.46
2022-09-06T03:13:36.515Z,98.47
2022-09-06T03:14:41.346Z,97.99
2022-09-06T03:15:44.151Z,97.88
2022-09-06T03:16:46.481Z,97.03
2022-09-06T03:17:48.626Z,97.26
2022-09-06T03:18:50.756Z,97.07
2022-09-06T03:19:53.570Z,96.57
2022-09-06T03:20:56.784Z,95.66
2022-09-06T03:21:59.197Z,96.00
2022-09-06T03:23:02.630Z,95.83
2022-09-06T03:24:05.545Z,94.95
2022-09-06T03:25:09.372Z,95.09
2022-09-06T03:26:11.693Z,95.54
2022-09-06T03:27:13.989Z,95.12
2022-09-06T03:28:23.151Z,95.05
2022-09-06T03:29:26.387Z,93.92
2022-09-06T03:30:30.302Z,93.82
2022-09-06T03:31:32.381Z,93.45
2022-09-06T03:32:36.120Z,93.31
2022-09-06T03:33:41.895Z,93.10
2022-09-06T03:34:44.036Z,92.83
2022-09-06T03:35:55.072Z,92.48
2022-09-06T03:36:58.817Z,92.41
2022-09-06T03:38:00.950Z,92.28
2022-09-06T03:39:02.968Z,91.50
2022-09-06T03:40:07.514Z,92.08
2022-09-06T03:41:09.740Z,92.19
2022-09-06T03:42:14.923Z,91.63
2022-09-06T03:43:20.483Z,91.81
2022-09-06T03:44:22.719Z,90.83
2022-09-06T03:45:25.212Z,90.73
2022-09-06T03:46:31.565Z,91.21
2022-09-06T03:47:33.951Z,91.15
2022-09-06T03:48:36.189Z,90.66
2022-09-06T03:49:38.225Z,90.45
2022-09-06T03:50:47.164Z,91.00
2022-09-06T03:51:49.156Z,90.49
2022-09-06T03:52:51.132Z,90.22
2022-09-06T03:53:53.286Z,90.30
2022-09-06T03:54:55.298Z,89.70
2022-09-06T03:56:00.726Z,89.43
2022-09-06T03:57:04.159Z,88.90
2022-09-06T03:58:06.476Z,89.48
2022-09-06T03:59:08.464Z,89.40
2022-09-06T04:00:11.168Z,89.89
2022-09-06T04:01:19.809Z,89.56
2022-09-06T04:02:22.202Z,89.86
2022-09-06T04:03:25.436Z,90.10
2022-09-06T04:04:27.478Z,89.76
2022-09-06T04:05:29.760Z,89.89
2022-09-06T04:06:32.270Z,89.14
2022-09-06T04:07:34.364Z,89.29
2022-09-06T04:08:37.464Z,89.22
2022-09-06T04:09:39.528Z,89.35
2022-09-06T04:10:42.813Z,89.98
2022-09-06T04:11:45.203Z,89.70
2022-09-06T04:12:47.696Z,89.51
2022-09-06T04:13:49.683Z,90.17
2022-09-06T04:14:51.788Z,89.80
2022-09-06T04:15:55.425Z,90.24
2022-09-06T04:16:58.151Z,89.76
2022-09-06T04:18:00.224Z,90.09
2022-09-06T04:19:04.276Z,90.26
2022-09-06T04:20:06.997Z,89.36
2022-09-06T04:21:10.254Z,89.85
2022-09-06T04:22:12.309Z,89.97
2022-09-06T04:23:14.634Z,89.77
2022-09-06T04:24:16.629Z,89.95
2022-09-06T04:25:20.187Z,90.09
2022-09-06T04:26:22.911Z,89.43
2022-09-06T04:27:27.343Z,88.73
2022-09-06T04:28:29.392Z,88.76
2022-09-06T04:29:31.518Z,88.93
2022-09-06T04:30:33.471Z,87.84
2022-09-06T04:31:35.711Z,87.34
2022-09-06T04:32:37.992Z,87.80
2022-09-06T04:33:41.035Z,86.46
2022-09-06T04:34:43.178Z,86.39
2022-09-06T04:35:50.068Z,86.46
2022-09-06T04:36:52.097Z,86.03
2022-09-06T04:37:54.306Z,85.83
2022-09-06T04:38:58.496Z,85.20
2022-09-06T04:40:00.722Z,85.62
2022-09-06T04:41:03.334Z,84.80
2022-09-06T04:42:05.616Z,84.40
2022-09-06T04:43:08.144Z,83.45
2022-09-06T04:44:10.470Z,83.60
2022-09-06T04:45:12.521Z,84.01
2022-09-06T04:46:25.211Z,84.29
2022-09-06T04:47:27.291Z,84.07
2022-09-06T04:48:29.339Z,83.41
2022-09-06T04:49:31.369Z,83.70
2022-09-06T04:50:33.662Z,83.14
2022-09-06T04:51:42.339Z,83.64
2022-09-06T04:52:45.560Z,83.82
2022-09-06T04:53:48.314Z,83.04
2022-09-06T04:54:50.417Z,83.45
2022-09-06T04:55:52.595Z,83.05
2022-09-06T04:56:54.643Z,83.42
2022-09-06T04:57:58.571Z,82.69
2022-09-06T04:59:00.708Z,82.01
2022-09-06T05:00:04.069Z,81.28
2022-09-06T05:01:07.101Z,81.69
2022-09-06T05:02:09.346Z,82.40
2022-09-06T05:03:11.467Z,81.89
2022-09-06T05:04:15.183Z,81.51
2022-09-06T05:05:17.316Z,82.27
2022-09-06T05:06:22.595Z,81.87
2022-09-06T05:07:25.387Z,81.48
2022-09-06T05:08:27.487Z,81.79
2022-09-06T05:09:29.859Z,80.46
2022-09-06T05:10:31.892Z,80.90
2022-09-06T05:11:36.908Z,80.53
2022-09-06T05:12:43.629Z,79.98
2022-09-06T05:13:47.517Z,80.07
2022-09-06T05:14:51.883Z,79.32
2022-09-06T05:15:56.619Z,79.67
2022-09-06T05:16:58.692Z,79.58
2022-09-06T05:18:06.953Z,79.37
2022-09-06T05:19:10.207Z,78.78
2022-09-06T05:20:15.540Z,79.34
2022-09-06T05:21:17.936Z,77.96
2022-09-06T05:22:20.042Z,76.34
2022-09-06T05:23:22.712Z,76.20
2022-09-06T05:24:24.991Z,76.01
2022-09-06T05:25:27.217Z,75.48
2022-09-06T05:26:29.333Z,74.77
2022-09-06T05:27:31.359Z,74.33
2022-09-06T05:28:33.853Z,73.90
2022-09-06T05:29:35.882Z,73.84
2022-09-06T05:30:38.053Z,73.23
2022-09-06T05:31:40.174Z,73.05
2022-09-06T05:32:42.288Z,73.75
2022-09-06T05:33:44.738Z,74.15
2022-09-06T05:34:49.797Z,74.25
2022-09-06T05:35:52.139Z,74.41
2022-09-06T05:36:57.242Z,73.67
2022-09-06T05:37:59.481Z,73.44
2022-09-06T05:39:02.105Z,73.84
2022-09-06T05:40:04.272Z,74.91
2022-09-06T05:41:06.508Z,74.90
2022-09-06T05:42:08.758Z,75.25
2022-09-06T05:43:11.034Z,73.87
2022-09-06T05:44:13.607Z,73.76
2022-09-06T05:45:15.973Z,74.28
2022-09-06T05:46:18.131Z,73.94
2022-09-06T05:47:20.345Z,73.83
2022-09-06T05:48:24.087Z,74.21
2022-09-06T05:49:26.411Z,74.21
2022-09-06T05:50:28.490Z,75.06
2022-09-06T05:51:31.557Z,74.39
2022-09-06T05:52:35.498Z,74.79
2022-09-06T05:53:43.701Z,74.56
2022-09-06T05:54:45.754Z,74.17
2022-09-06T05:55:49.507Z,74.29
2022-09-06T05:56:51.542Z,73.20
2022-09-06T05:57:53.724Z,73.03
2022-09-06T05:58:55.843Z,73.35
2022-09-06T05:59:58.207Z,73.31
2022-09-06T06:01:20.547Z,72.58
2022-09-06T06:02:23.432Z,73.32
2022-09-06T06:03:25.458Z,74.00
2022-09-06T06:04:27.897Z,73.61
2022-09-06T06:05:33.301Z,73.24
2022-09-06T06:06:35.395Z,72.38
2022-09-06T06:07:38.325Z,71.26
2022-09-06T06:08:40.488Z,71.57
2022-09-06T06:09:42.597Z,71.67
2022-09-06T06:10:44.738Z,72.17
2022-09-06T06:11:46.863Z,71.90
2022-09-06T06:12:49.926Z,71.97
2022-09-06T06:13:52.703Z,73.50
2022-09-06T06:14:54.968Z,73.24
2022-09-06T06:15:57.183Z,74.15
2022-09-06T06:16:59.419Z,73.63
2022-09-06T06:18:01.629Z,73.33
2022-09-06T06:19:03.903Z,73.01
2022-09-06T06:20:06.384Z,73.22
2022-09-06T06:21:11.019Z,73.32
2022-09-06T06:22:13.090Z,72.03
2022-09-06T06:23:15.944Z,71.35
2022-09-06T06:24:18.689Z,71.04
2022-09-06T06:25:23.314Z,70.58
2022-09-06T06:26:27.123Z,70.60
2022-09-06T06:27:29.246Z,70.24
2022-09-06T06:28:32.223Z,69.95
2022-09-06T06:29:34.298Z,68.15
2022-09-06T06:30:37.350Z,68.08
2022-09-06T06:31:39.567Z,67.31
2022-09-06T06:32:41.640Z,66.16
2022-09-06T06:33:44.474Z,64.49
2022-09-06T06:34:46.697Z,63.33
2022-09-06T06:36:01.770Z,63.91
2022-09-06T06:37:08.273Z,63.28
2022-09-06T06:38:10.587Z,63.67
2022-09-06T06:39:12.669Z,64.60
2022-09-06T06:40:14.966Z,64.84
2022-09-06T06:41:26.473Z,65.17
2022-09-06T06:42:28.565Z,65.43
2022-09-06T06:43:36.589Z,66.04
2022-09-06T06:44:38.992Z,65.01
2022-09-06T06:45:41.060Z,65.89
2022-09-06T06:46:44.529Z,65.77
2022-09-06T06:47:50.265Z,66.28
2022-09-06T06:48:57.164Z,67.13
2022-09-06T06:49:59.397Z,68.79
2022-09-06T06:51:01.497Z,72.41
2022-09-06T06:52:06.407Z,74.14
2022-09-06T06:53:08.613Z,76.29
2022-09-06T06:54:10.698Z,76.96
2022-09-06T06:55:12.761Z,77.60
2022-09-06T06:56:20.382Z,77.60
2022-09-06T06:57:22.614Z,78.61
2022-09-06T06:58:25.426Z,80.20
2022-09-06T06:59:32.683Z,80.63
2022-09-06T07:00:34.802Z,80.62
2022-09-06T07:01:37.680Z,78.97
2022-09-06T07:02:39.837Z,78.99
2022-09-06T07:03:41.939Z,75.39
2022-09-06T07:04:44.754Z,73.10
2022-09-06T07:08:32.098Z,62.28
2022-09-06T07:10:59.560Z,59.36
2022-09-06T07:12:01.787Z,58.32
2022-09-06T07:13:04.220Z,55.44
2022-09-06T07:14:06.308Z,53.99
2022-09-06T07:15:09.009Z,53.13
2022-09-06T07:16:23.345Z,54.16
2022-09-06T07:17:25.615Z,52.68
2022-09-06T07:18:27.690Z,52.04
2022-09-06T07:22:14.093Z,58.52
2022-09-06T07:24:39.674Z,56.87
2022-09-06T07:25:41.713Z,59.58
2022-09-06T07:28:08.778Z,57.27
2022-09-06T07:29:11.895Z,53.15
2022-09-06T07:30:14.483Z,52.88
2022-09-06T07:32:38.912Z,48.56
2022-09-06T07:33:41.260Z,48.01
2022-09-06T07:34:43.330Z,45.63
2022-09-06T07:35:58.505Z,44.78
2022-09-06T07:37:00.917Z,44.27
2022-09-06T07:38:03.052Z,45.11
2022-09-06T07:39:05.167Z,44.16
2022-09-06T07:40:08.007Z,43.24
2022-09-06T07:41:11.154Z,43.23
2022-09-06T07:42:16.391Z,41.21
2022-09-06T07:43:18.595Z,41.83
2022-09-06T07:44:20.742Z,41.99
2022-09-06T07:45:22.798Z,42.94
2022-09-06T07:46:25.723Z,42.15
2022-09-06T07:48:50.065Z,44.06
2022-09-06T07:51:24.186Z,46.53
2022-09-06T07:53:58.026Z,47.93
2022-09-06T07:55:10.204Z,49.54
2022-09-06T07:56:12.938Z,48.68
2022-09-06T07:57:15.123Z,49.13
2022-09-06T07:58:17.565Z,50.43
2022-09-06T07:59:19.648Z,51.26
2022-09-06T08:00:21.851Z,51.89
2022-09-06T08:01:30.311Z,53.09
2022-09-06T08:02:32.611Z,53.97
2022-09-06T08:03:34.625Z,53.22
2022-09-06T08:04:36.691Z,54.12
2022-09-06T08:09:48.380Z,56.04
2022-09-06T08:10:51.680Z,56.10
2022-09-06T08:11:54.208Z,55.40
2022-09-06T08:12:56.312Z,56.60
2022-09-06T08:14:00.409Z,56.19
2022-09-06T08:15:02.662Z,55.33
2022-09-06T08:16:08.710Z,55.18
2022-09-06T08:17:10.973Z,54.85
2022-09-06T08:18:13.220Z,54.67
2022-09-06T08:19:15.770Z,55.32
2022-09-06T08:20:18.168Z,54.36
2022-09-06T08:21:23.727Z,55.45
2022-09-06T08:22:26.983Z,56.95
2022-09-06T08:23:31.835Z,57.20
2022-09-06T08:24:36.002Z,57.23
2022-09-06T08:25:38.464Z,58.25
2022-09-06T08:26:43.530Z,59.76
2022-09-06T08:27:45.742Z,60.89
2022-09-06T08:28:48.183Z,61.16
2022-09-06T08:29:53.175Z,62.79
2022-09-06T08:30:55.492Z,65.51
2022-09-06T08:31:58.110Z,66.02
2022-09-06T08:33:01.435Z,66.31
2022-09-06T08:34:06.568Z,67.06
2022-09-06T08:35:09.448Z,67.46
2022-09-06T08:36:12.228Z,67.31
2022-09-06T08:37:14.590Z,67.00
2022-09-06T08:38:16.620Z,65.80
2022-09-06T08:39:19.319Z,65.72
2022-09-06T08:40:24.264Z,65.22
2022-09-06T08:41:55.551Z,67.53
2022-09-06T08:43:00.640Z,66.62
2022-09-06T08:45:35.296Z,66.77
2022-09-06T08:47:08.812Z,67.88
2022-09-06T08:48:11.080Z,68.08
2022-09-06T08:49:13.744Z,65.38
2022-09-06T08:50:16.186Z,64.63
2022-09-06T08:51:39.958Z,64.19
2022-09-06T08:54:26.037Z,62.19
2022-09-06T08:55:31.087Z,61.45
2022-09-06T08:56:42.849Z,61.68
2022-09-06T08:58:03.270Z,61.55
2022-09-06T08:59:11.785Z,61.44
2022-09-06T09:00:15.212Z,60.78
2022-09-06T09:01:27.599Z,58.69
2022-09-06T09:02:47.746Z,57.56
2022-09-06T09:03:50.139Z,57.94
2022-09-06T09:05:04.958Z,57.59
2022-09-06T09:06:10.379Z,56.87
2022-09-06T09:07:41.438Z,56.58
2022-09-06T09:09:08.115Z,57.09
2022-09-06T09:10:43.675Z,56.18
2022-09-06T09:11:51.723Z,56.96
2022-09-06T09:12:54.134Z,57.71
2022-09-06T09:13:59.996Z,57.20
2022-09-06T09:15:14.521Z,57.33
2022-09-06T09:16:35.035Z,57.00
2022-09-06T09:17:37.685Z,55.92
2022-09-06T09:18:43.959Z,55.37
2022-09-06T09:19:46.405Z,55.32
2022-09-06T09:20:48.542Z,56.36
2022-09-06T09:21:50.807Z,56.47
2022-09-06T09:22:52.900Z,56.57
2022-09-06T09:23:57.609Z,57.24
2022-09-06T09:25:01.683Z,57.29
2022-09-06T09:26:07.556Z,56.15
2022-09-06T09:27:12.865Z,56.68
2022-09-06T09:28:19.245Z,56.62
2022-09-06T09:29:26.720Z,57.61
2022-09-06T09:30:52.883Z,56.20
2022-09-06T09:31:56.363Z,57.31
2022-09-06T09:32:58.595Z,57.67
2022-09-06T09:34:04.827Z,57.66
2022-09-06T09:35:32.707Z,57.46
2022-09-06T09:36:34.924Z,57.62
2022-09-06T09:37:46.620Z,57.40
2022-09-06T09:38:52.149Z,58.18
2022-09-06T09:39:55.909Z,57.88
2022-09-06T09:41:00.105Z,56.77
2022-09-06T09:42:05.268Z,57.28
2022-09-06T09:43:27.516Z,57.14
2022-09-06T09:44:30.994Z,56.92
2022-09-06T09:45:33.011Z,56.38
2022-09-06T09:46:40.142Z,57.11
2022-09-06T09:47:43.262Z,56.56
2022-09-06T09:49:10.790Z,56.07
2022-09-06T09:50:30.450Z,57.35
2022-09-06T09:51:41.164Z,57.71
2022-09-06T09:52:45.806Z,58.02
2022-09-06T09:54:05.046Z,58.43
2022-09-06T09:55:11.869Z,58.21
2022-09-06T09:56:16.924Z,59.25
2022-09-06T09:57:21.987Z,59.41
2022-09-06T09:58:36.529Z,59.63
2022-09-06T09:59:44.578Z,60.09
2022-09-06T10:00:46.742Z,60.19
2022-09-06T10:01:49.701Z,60.19
2022-09-06T10:02:51.757Z,60.84
2022-09-06T10:05:24.894Z,60.87
2022-09-06T10:07:55.451Z,62.06
2022-09-06T10:08:58.104Z,60.99
2022-09-06T10:10:05.108Z,60.89
2022-09-06T10:11:07.377Z,60.83
2022-09-06T10:12:16.717Z,60.62
2022-09-06T10:13:34.401Z,62.75
2022-09-06T10:14:49.567Z,62.10
2022-09-06T10:15:53.812Z,62.50
2022-09-06T10:16:57.271Z,64.81
2022-09-06T10:17:59.831Z,66.59
2022-09-06T10:19:24.337Z,70.06
2022-09-06T10:20:46.138Z,71.63
2022-09-06T10:21:51.222Z,74.22
2022-09-06T10:22:53.422Z,75.50
2022-09-06T10:25:49.565Z,79.79
2022-09-06T10:26:55.792Z,77.39
2022-09-06T10:28:24.183Z,77.57
2022-09-06T10:29:45.782Z,79.58
2022-09-06T10:31:22.422Z,79.37
2022-09-06T10:32:48.363Z,79.94
2022-09-06T10:34:19.892Z,78.00
2022-09-06T10:35:28.288Z,77.71
2022-09-06T10:36:40.760Z,80.49
2022-09-06T10:38:05.511Z,78.98
2022-09-06T10:39:43.019Z,77.68
2022-09-06T10:41:12.038Z,76.06
2022-09-06T10:42:32.764Z,75.38
2022-09-06T10:44:13.801Z,74.59
2022-09-06T10:45:54.173Z,75.27
2022-09-06T10:47:09.153Z,74.97
2022-09-06T10:48:37.183Z,73.63
2022-09-06T10:49:50.920Z,72.24
2022-09-06T10:50:57.651Z,73.01
2022-09-06T10:52:02.792Z,72.74
2022-09-06T10:53:13.731Z,71.11
2022-09-06T10:54:23.635Z,72.13
2022-09-06T10:55:25.901Z,70.35
2022-09-06T10:57:02.591Z,71.14
2022-09-06T10:58:22.915Z,71.08
2022-09-06T11:00:47.530Z,69.78
2022-09-06T11:01:58.886Z,70.27
2022-09-06T11:06:17.328Z,69.53
2022-09-06T11:07:29.512Z,68.88
2022-09-06T11:08:58.246Z,67.70
2022-09-06T11:10:22.453Z,68.62
2022-09-06T11:11:52.236Z,68.08
2022-09-06T11:13:11.284Z,66.64
2022-09-06T11:14:19.115Z,67.44
2022-09-06T11:15:25.028Z,67.46
2022-09-06T11:16:42.203Z,67.55
2022-09-06T11:18:01.175Z,66.26
2022-09-06T11:19:37.167Z,67.67
2022-09-06T11:20:50.722Z,67.39
2022-09-06T11:21:57.503Z,68.10
2022-09-06T11:23:02.588Z,68.83
2022-09-06T11:24:13.555Z,68.11
2022-09-06T11:25:37.207Z,68.16
2022-09-06T11:27:01.685Z,68.34
2022-09-06T11:28:10.444Z,69.75
2022-09-06T11:29:25.151Z,68.26
2022-09-06T11:30:29.926Z,68.66
2022-09-06T11:33:31.276Z,67.72
2022-09-06T11:34:35.621Z,68.12
2022-09-06T11:35:40.291Z,68.19
2022-09-06T11:36:56.096Z,68.12
2022-09-06T11:38:02.983Z,69.46
2022-09-06T11:39:08.099Z,68.73
2022-09-06T11:40:27.345Z,68.01
2022-09-06T11:41:36.296Z,68.19
2022-09-06T11:42:46.133Z,68.34
2022-09-06T11:43:50.629Z,68.86
2022-09-06T11:44:54.380Z,69.36
2022-09-06T11:45:56.599Z,68.87
2022-09-06T11:46:59.712Z,69.20
2022-09-06T11:48:24.575Z,69.54
2022-09-06T11:49:31.263Z,70.86
2022-09-06T11:50:59.611Z,70.46
2022-09-06T11:52:03.741Z,70.95
2022-09-06T11:53:18.969Z,70.62
2022-09-06T11:54:23.650Z,70.63
2022-09-06T11:55:40.220Z,70.40
2022-09-06T11:56:47.118Z,71.11
2022-09-06T11:57:55.784Z,71.89
2022-09-06T11:59:16.237Z,74.01
2022-09-06T12:00:24.617Z,75.05
2022-09-06T12:01:26.564Z,73.02
2022-09-06T12:02:36.485Z,73.06
2022-09-06T12:04:10.019Z,74.81
2022-09-06T12:05:19.044Z,74.14
2022-09-06T12:06:33.496Z,73.27
2022-09-06T12:07:38.114Z,76.26
2022-09-06T12:08:41.283Z,75.24
2022-09-06T12:09:44.333Z,75.79
2022-09-06T12:10:55.586Z,74.98
2022-09-06T12:11:58.764Z,75.16
2022-09-06T12:13:01.431Z,74.16
2022-09-06T12:14:28.483Z,75.21
2022-09-06T12:15:44.500Z,75.48
2022-09-06T12:17:05.247Z,75.03
2022-09-06T12:18:08.749Z,75.39
2022-09-06T12:19:49.327Z,77.32
2022-09-06T12:20:56.833Z,77.90
2022-09-06T12:21:58.951Z,77.97
2022-09-06T12:23:00.999Z,78.94
2022-09-06T12:24:05.589Z,78.02
2022-09-06T12:25:26.607Z,79.29
2022-09-06T12:27:07.158Z,79.07
2022-09-06T12:28:21.361Z,78.96
2022-09-06T12:29:28.603Z,78.64
2022-09-06T12:30:42.320Z,77.74
2022-09-06T12:31:52.406Z,77.18
2022-09-06T12:32:54.615Z,76.68
2022-09-06T12:34:05.701Z,77.58
2022-09-06T12:36:48.997Z,78.74
2022-09-06T12:37:55.660Z,78.52
2022-09-06T12:39:09.124Z,77.26
2022-09-06T12:40:12.230Z,78.08
2022-09-06T12:41:16.920Z,77.03
2022-09-06T12:42:22.220Z,77.51
2022-09-06T12:43:24.471Z,79.21
2022-09-06T12:44:29.220Z,76.81
2022-09-06T12:45:31.995Z,76.76
2022-09-06T12:46:35.329Z,77.03
2022-09-06T12:47:40.273Z,77.33
2022-09-06T12:48:44.641Z,77.56
2022-09-06T12:49:46.707Z,77.42
2022-09-06T12:51:02.565Z,77.58
2022-09-06T12:52:19.310Z,76.74
2022-09-06T12:53:25.153Z,76.44
2022-09-06T12:54:29.044Z,78.48
2022-09-06T12:55:33.952Z,77.46
2022-09-06T12:56:38.143Z,74.87
2022-09-06T12:57:47.740Z,75.46
2022-09-06T12:58:49.889Z,74.79
2022-09-06T12:59:57.045Z,75.04
2022-09-06T13:01:23.011Z,73.97
2022-09-06T13:02:41.375Z,74.24
2022-09-06T13:04:16.530Z,72.40
2022-09-06T13:05:19.118Z,72.56
2022-09-06T13:06:27.289Z,72.03
2022-09-06T13:07:31.800Z,73.03
2022-09-06T13:08:47.511Z,73.32
2022-09-06T13:09:54.189Z,73.10
2022-09-06T13:10:57.272Z,73.28
2022-09-06T13:12:08.361Z,73.41
2022-09-06T13:13:13.139Z,73.37
2022-09-06T13:14:24.888Z,73.69
2022-09-06T13:15:29.337Z,72.75
2022-09-06T13:16:37.885Z,72.62
2022-09-06T13:17:41.078Z,72.28
2022-09-06T13:18:46.660Z,72.89
2022-09-06T13:19:51.057Z,73.51
2022-09-06T13:21:05.247Z,73.58
2022-09-06T13:22:11.323Z,72.96
2022-09-06T13:23:20.907Z,72.10
2022-09-06T13:24:46.594Z,71.81
2022-09-06T13:25:51.852Z,71.70
2022-09-06T13:26:55.096Z,71.90
2022-09-06T13:27:58.394Z,71.26
2022-09-06T13:29:30.956Z,70.71
2022-09-06T13:30:42.784Z,71.36
2022-09-06T13:31:47.760Z,72.84
2022-09-06T13:32:52.376Z,74.84
2022-09-06T13:33:59.295Z,75.85
2022-09-06T13:35:01.756Z,76.20
2022-09-06T13:36:19.819Z,77.11
2022-09-06T13:37:21.991Z,77.44
2022-09-06T13:38:41.128Z,76.08
2022-09-06T13:39:46.671Z,75.77
2022-09-06T13:41:11.885Z,78.00
2022-09-06T13:42:33.360Z,76.68
2022-09-06T13:43:46.312Z,76.90
2022-09-06T13:44:48.378Z,76.77
2022-09-06T13:46:06.472Z,75.43
2022-09-06T13:47:08.743Z,75.99
2022-09-06T13:48:28.445Z,76.43
2022-09-06T13:49:32.669Z,75.36
2022-09-06T13:50:35.176Z,73.80
2022-09-06T13:51:39.551Z,73.09
2022-09-06T13:52:41.711Z,72.06
2022-09-06T13:53:43.868Z,73.40
2022-09-06T13:54:46.012Z,72.58
2022-09-06T13:55:48.016Z,72.92
2022-09-06T13:56:50.808Z,72.86
2022-09-06T13:57:52.815Z,71.07
2022-09-06T13:58:54.958Z,70.31
2022-09-06T13:59:58.527Z,71.19
2022-09-06T14:01:01.124Z,70.97
2022-09-06T14:02:10.150Z,71.51
2022-09-06T14:03:14.904Z,70.54
2022-09-06T14:04:21.633Z,70.62
2022-09-06T14:05:23.823Z,71.94
2022-09-06T14:06:25.988Z,73.19
2022-09-06T14:07:28.098Z,72.91
2022-09-06T14:08:49.255Z,72.58
2022-09-06T14:09:56.733Z,72.75
2022-09-06T14:10:58.920Z,73.59
2022-09-06T14:12:33.617Z,74.09
2022-09-06T14:13:35.773Z,75.05
2022-09-06T14:14:38.113Z,73.97
2022-09-06T14:15:40.752Z,74.97
2022-09-06T14:16:42.945Z,74.92
2022-09-06T14:17:46.887Z,74.12
2022-09-06T14:18:50.019Z,73.58
2022-09-06T14:19:52.132Z,73.60
2022-09-06T14:20:57.603Z,73.97
2022-09-06T14:21:59.706Z,74.33
2022-09-06T14:23:01.857Z,74.55
2022-09-06T14:24:04.862Z,74.15
2022-09-06T14:25:07.517Z,75.32
2022-09-06T14:26:10.199Z,74.72
2022-09-06T14:27:12.440Z,76.16
2022-09-06T14:28:15.079Z,77.34
2022-09-06T14:29:17.503Z,76.79
2022-09-06T14:30:19.629Z,76.39
2022-09-06T14:31:26.107Z,79.78
2022-09-06T14:32:28.476Z,81.54
2022-09-06T14:33:31.391Z,81.53
2022-09-06T14:34:33.487Z,81.40
2022-09-06T14:35:35.598Z,82.36
2022-09-06T14:36:37.773Z,82.78
2022-09-06T14:37:40.081Z,82.04
2022-09-06T14:38:44.366Z,84.96
2022-09-06T14:40:23.891Z,85.18
2022-09-06T14:41:28.513Z,86.41
2022-09-06T14:42:30.839Z,86.75
2022-09-06T14:43:33.501Z,86.20
2022-09-06T14:44:35.895Z,86.75
2022-09-06T14:45:38.238Z,85.95
2022-09-06T14:46:40.538Z,84.15
2022-09-06T14:47:42.709Z,85.06
2022-09-06T14:48:44.996Z,86.31
2022-09-06T14:49:47.239Z,87.36
2022-09-06T14:50:49.813Z,83.94
2022-09-06T14:51:53.799Z,83.97
2022-09-06T14:52:58.911Z,83.28
2022-09-06T14:54:07.730Z,82.94
2022-09-06T14:55:10.134Z,81.29
2022-09-06T14:56:13.221Z,79.19
2022-09-06T14:57:15.879Z,79.74
2022-09-06T14:58:18.074Z,79.27